sensor_id;sensor_type;location;lat;lon;timestamp;P1;durP1;ratioP1;P2;durP2;ratioP2
10335;SDS011;5213;53.548;9.930;2024-02-26T00:00:34;7.93;;;7.13;;
10335;SDS011;5213;53.548;9.930;2024-02-26T00:03:00;8.35;;;7.55;;
10335;SDS011;5213;53.548;9.930;2024-02-26T00:05:26;8.70;;;7.80;;
10335;SDS011;5213;53.548;9.930;2024-02-26T00:07:52;8.07;;;7.28;;
10335;SDS011;5213;53.548;9.930;2024-02-26T00:10:17;8.02;;;7.22;;
10335;SDS011;5213;53.548;9.930;2024-02-26T00:12:43;8.13;;;7.35;;
10335;SDS011;5213;53.548;9.930;2024-02-26T00:15:09;8.02;;;7.22;;
10335;SDS011;5213;53.548;9.930;2024-02-26T00:17:35;8.85;;;7.38;;
10335;SDS011;5213;53.548;9.930;2024-02-26T00:20:04;9.00;;;8.10;;
10335;SDS011;5213;53.548;9.930;2024-02-26T00:22:33;9.10;;;7.78;;
10335;SDS011;5213;53.548;9.930;2024-02-26T00:24:59;9.27;;;8.23;;
10335;SDS011;5213;53.548;9.930;2024-02-26T00:27:25;9.85;;;8.85;;
10335;SDS011;5213;53.548;9.930;2024-02-26T00:29:50;9.57;;;8.68;;
10335;SDS011;5213;53.548;9.930;2024-02-26T00:32:16;9.45;;;8.55;;
10335;SDS011;5213;53.548;9.930;2024-02-26T00:34:42;10.45;;;9.35;;
10335;SDS011;5213;53.548;9.930;2024-02-26T00:37:07;10.40;;;9.40;;
10335;SDS011;5213;53.548;9.930;2024-02-26T00:39:33;10.38;;;9.38;;
10335;SDS011;5213;53.548;9.930;2024-02-26T00:41:59;10.30;;;9.07;;
10335;SDS011;5213;53.548;9.930;2024-02-26T00:44:24;11.23;;;10.13;;
10335;SDS011;5213;53.548;9.930;2024-02-26T00:46:50;9.95;;;9.05;;
10335;SDS011;5213;53.548;9.930;2024-02-26T00:49:15;9.55;;;8.63;;
10335;SDS011;5213;53.548;9.930;2024-02-26T00:51:41;10.90;;;9.88;;
10335;SDS011;5213;53.548;9.930;2024-02-26T00:54:07;10.50;;;9.10;;
10335;SDS011;5213;53.548;9.930;2024-02-26T00:56:32;10.73;;;9.63;;
10335;SDS011;5213;53.548;9.930;2024-02-26T00:58:58;10.13;;;9.13;;
10335;SDS011;5213;53.548;9.930;2024-02-26T01:01:24;10.27;;;9.20;;
10335;SDS011;5213;53.548;9.930;2024-02-26T01:03:49;10.23;;;9.23;;
10335;SDS011;5213;53.548;9.930;2024-02-26T01:06:15;11.30;;;10.10;;
10335;SDS011;5213;53.548;9.930;2024-02-26T01:08:41;11.57;;;10.38;;
10335;SDS011;5213;53.548;9.930;2024-02-26T01:11:06;11.18;;;10.07;;
10335;SDS011;5213;53.548;9.930;2024-02-26T01:13:32;10.80;;;9.70;;
10335;SDS011;5213;53.548;9.930;2024-02-26T01:15:58;11.48;;;10.13;;
10335;SDS011;5213;53.548;9.930;2024-02-26T01:18:25;10.52;;;9.43;;
10335;SDS011;5213;53.548;9.930;2024-02-26T01:20:51;11.02;;;9.80;;
10335;SDS011;5213;53.548;9.930;2024-02-26T01:23:19;11.18;;;9.82;;
10335;SDS011;5213;53.548;9.930;2024-02-26T01:25:45;11.48;;;9.85;;
10335;SDS011;5213;53.548;9.930;2024-02-26T01:28:10;10.88;;;9.80;;
10335;SDS011;5213;53.548;9.930;2024-02-26T01:30:36;11.15;;;9.88;;
10335;SDS011;5213;53.548;9.930;2024-02-26T01:33:02;11.25;;;9.77;;
10335;SDS011;5213;53.548;9.930;2024-02-26T01:35:28;11.40;;;10.05;;
10335;SDS011;5213;53.548;9.930;2024-02-26T01:37:54;12.00;;;10.63;;
10335;SDS011;5213;53.548;9.930;2024-02-26T01:40:20;14.63;;;11.80;;
10335;SDS011;5213;53.548;9.930;2024-02-26T01:42:46;13.27;;;11.45;;
10335;SDS011;5213;53.548;9.930;2024-02-26T01:45:16;14.05;;;12.25;;
10335;SDS011;5213;53.548;9.930;2024-02-26T01:47:47;14.45;;;11.90;;
10335;SDS011;5213;53.548;9.930;2024-02-26T01:50:14;13.43;;;11.75;;
10335;SDS011;5213;53.548;9.930;2024-02-26T01:52:41;14.30;;;12.15;;
10335;SDS011;5213;53.548;9.930;2024-02-26T01:55:07;15.07;;;12.57;;
10335;SDS011;5213;53.548;9.930;2024-02-26T01:57:33;17.45;;;12.73;;
10335;SDS011;5213;53.548;9.930;2024-02-26T01:59:59;17.73;;;13.30;;
10335;SDS011;5213;53.548;9.930;2024-02-26T02:02:24;17.23;;;13.35;;
10335;SDS011;5213;53.548;9.930;2024-02-26T02:04:51;18.02;;;13.48;;
10335;SDS011;5213;53.548;9.930;2024-02-26T02:07:17;18.23;;;14.32;;
10335;SDS011;5213;53.548;9.930;2024-02-26T02:09:44;16.95;;;13.30;;
10335;SDS011;5213;53.548;9.930;2024-02-26T02:12:10;20.33;;;14.02;;
10335;SDS011;5213;53.548;9.930;2024-02-26T02:14:36;18.65;;;13.15;;
10335;SDS011;5213;53.548;9.930;2024-02-26T02:17:02;20.05;;;14.18;;
10335;SDS011;5213;53.548;9.930;2024-02-26T02:19:27;21.95;;;14.38;;
10335;SDS011;5213;53.548;9.930;2024-02-26T02:21:53;24.02;;;15.55;;
10335;SDS011;5213;53.548;9.930;2024-02-26T02:24:18;20.13;;;14.80;;
10335;SDS011;5213;53.548;9.930;2024-02-26T02:26:44;23.40;;;15.10;;
10335;SDS011;5213;53.548;9.930;2024-02-26T02:29:10;21.38;;;15.68;;
10335;SDS011;5213;53.548;9.930;2024-02-26T02:31:37;22.98;;;17.15;;
10335;SDS011;5213;53.548;9.930;2024-02-26T02:34:03;24.00;;;17.40;;
10335;SDS011;5213;53.548;9.930;2024-02-26T02:36:29;20.30;;;16.23;;
10335;SDS011;5213;53.548;9.930;2024-02-26T02:38:54;23.00;;;16.13;;
10335;SDS011;5213;53.548;9.930;2024-02-26T02:41:20;23.08;;;16.58;;
10335;SDS011;5213;53.548;9.930;2024-02-26T02:43:46;22.13;;;16.23;;
10335;SDS011;5213;53.548;9.930;2024-02-26T02:46:12;25.25;;;17.02;;
10335;SDS011;5213;53.548;9.930;2024-02-26T02:48:38;26.63;;;18.30;;
10335;SDS011;5213;53.548;9.930;2024-02-26T02:51:04;23.33;;;17.48;;
10335;SDS011;5213;53.548;9.930;2024-02-26T02:53:30;23.30;;;16.75;;
10335;SDS011;5213;53.548;9.930;2024-02-26T02:55:55;23.88;;;17.00;;
10335;SDS011;5213;53.548;9.930;2024-02-26T02:58:21;26.52;;;18.30;;
10335;SDS011;5213;53.548;9.930;2024-02-26T03:00:46;25.02;;;17.35;;
10335;SDS011;5213;53.548;9.930;2024-02-26T03:03:12;26.05;;;18.83;;
10335;SDS011;5213;53.548;9.930;2024-02-26T03:05:38;26.65;;;18.48;;
10335;SDS011;5213;53.548;9.930;2024-02-26T03:08:03;29.08;;;19.55;;
10335;SDS011;5213;53.548;9.930;2024-02-26T03:10:29;27.23;;;19.27;;
10335;SDS011;5213;53.548;9.930;2024-02-26T03:12:55;29.10;;;19.77;;
10335;SDS011;5213;53.548;9.930;2024-02-26T03:15:21;29.88;;;20.75;;
10335;SDS011;5213;53.548;9.930;2024-02-26T03:17:47;32.83;;;21.52;;
10335;SDS011;5213;53.548;9.930;2024-02-26T03:20:12;32.40;;;21.42;;
10335;SDS011;5213;53.548;9.930;2024-02-26T03:22:38;34.25;;;22.08;;
10335;SDS011;5213;53.548;9.930;2024-02-26T03:25:05;36.40;;;22.38;;
10335;SDS011;5213;53.548;9.930;2024-02-26T03:27:31;37.35;;;22.25;;
10335;SDS011;5213;53.548;9.930;2024-02-26T03:29:57;33.45;;;22.23;;
10335;SDS011;5213;53.548;9.930;2024-02-26T03:32:23;32.50;;;22.38;;
10335;SDS011;5213;53.548;9.930;2024-02-26T03:34:48;35.10;;;22.17;;
10335;SDS011;5213;53.548;9.930;2024-02-26T03:37:14;36.00;;;22.92;;
10335;SDS011;5213;53.548;9.930;2024-02-26T03:39:40;34.78;;;22.70;;
10335;SDS011;5213;53.548;9.930;2024-02-26T03:42:06;32.75;;;21.98;;
10335;SDS011;5213;53.548;9.930;2024-02-26T03:44:31;33.05;;;21.42;;
10335;SDS011;5213;53.548;9.930;2024-02-26T03:46:57;32.78;;;20.80;;
10335;SDS011;5213;53.548;9.930;2024-02-26T03:49:22;31.75;;;21.50;;
10335;SDS011;5213;53.548;9.930;2024-02-26T03:51:48;33.70;;;21.45;;
10335;SDS011;5213;53.548;9.930;2024-02-26T03:54:14;34.13;;;22.05;;
10335;SDS011;5213;53.548;9.930;2024-02-26T03:56:39;32.47;;;20.95;;
10335;SDS011;5213;53.548;9.930;2024-02-26T03:59:05;33.63;;;22.25;;
10335;SDS011;5213;53.548;9.930;2024-02-26T04:01:31;34.80;;;23.38;;
10335;SDS011;5213;53.548;9.930;2024-02-26T04:03:56;33.70;;;22.65;;
10335;SDS011;5213;53.548;9.930;2024-02-26T04:06:22;38.25;;;23.98;;
10335;SDS011;5213;53.548;9.930;2024-02-26T04:08:47;34.88;;;22.02;;
10335;SDS011;5213;53.548;9.930;2024-02-26T04:11:13;37.83;;;23.17;;
10335;SDS011;5213;53.548;9.930;2024-02-26T04:13:42;37.53;;;23.88;;
10335;SDS011;5213;53.548;9.930;2024-02-26T04:16:11;39.08;;;23.63;;
10335;SDS011;5213;53.548;9.930;2024-02-26T04:18:37;40.17;;;25.23;;
10335;SDS011;5213;53.548;9.930;2024-02-26T04:21:03;37.22;;;23.13;;
10335;SDS011;5213;53.548;9.930;2024-02-26T04:23:30;37.15;;;23.75;;
10335;SDS011;5213;53.548;9.930;2024-02-26T04:25:56;35.97;;;22.83;;
10335;SDS011;5213;53.548;9.930;2024-02-26T04:28:22;36.40;;;23.15;;
10335;SDS011;5213;53.548;9.930;2024-02-26T04:30:50;38.47;;;22.88;;
10335;SDS011;5213;53.548;9.930;2024-02-26T04:33:16;37.55;;;22.98;;
10335;SDS011;5213;53.548;9.930;2024-02-26T04:35:41;38.10;;;24.23;;
10335;SDS011;5213;53.548;9.930;2024-02-26T04:38:07;36.58;;;22.17;;
10335;SDS011;5213;53.548;9.930;2024-02-26T04:40:33;40.95;;;23.70;;
10335;SDS011;5213;53.548;9.930;2024-02-26T04:42:59;34.47;;;22.83;;
10335;SDS011;5213;53.548;9.930;2024-02-26T04:45:24;38.03;;;23.80;;
10335;SDS011;5213;53.548;9.930;2024-02-26T04:47:50;36.13;;;22.77;;
10335;SDS011;5213;53.548;9.930;2024-02-26T04:50:15;39.90;;;24.48;;
10335;SDS011;5213;53.548;9.930;2024-02-26T04:52:41;39.20;;;23.40;;
10335;SDS011;5213;53.548;9.930;2024-02-26T04:55:07;37.40;;;23.52;;
10335;SDS011;5213;53.548;9.930;2024-02-26T04:57:33;36.42;;;23.58;;
10335;SDS011;5213;53.548;9.930;2024-02-26T04:59:58;39.50;;;23.10;;
10335;SDS011;5213;53.548;9.930;2024-02-26T05:02:24;40.33;;;24.50;;
10335;SDS011;5213;53.548;9.930;2024-02-26T05:04:49;34.85;;;22.83;;
10335;SDS011;5213;53.548;9.930;2024-02-26T05:07:15;40.60;;;24.60;;
10335;SDS011;5213;53.548;9.930;2024-02-26T05:09:42;38.70;;;23.13;;
10335;SDS011;5213;53.548;9.930;2024-02-26T05:12:08;37.63;;;23.75;;
10335;SDS011;5213;53.548;9.930;2024-02-26T05:14:34;35.42;;;21.83;;
10335;SDS011;5213;53.548;9.930;2024-02-26T05:17:00;37.90;;;22.42;;
10335;SDS011;5213;53.548;9.930;2024-02-26T05:19:26;37.60;;;22.80;;
10335;SDS011;5213;53.548;9.930;2024-02-26T05:21:52;36.53;;;21.80;;
10335;SDS011;5213;53.548;9.930;2024-02-26T05:24:17;37.17;;;22.17;;
10335;SDS011;5213;53.548;9.930;2024-02-26T05:26:43;35.67;;;21.42;;
10335;SDS011;5213;53.548;9.930;2024-02-26T05:29:10;35.08;;;21.73;;
10335;SDS011;5213;53.548;9.930;2024-02-26T05:31:35;37.35;;;22.23;;
10335;SDS011;5213;53.548;9.930;2024-02-26T05:34:01;35.53;;;22.33;;
10335;SDS011;5213;53.548;9.930;2024-02-26T05:36:27;35.60;;;22.33;;
10335;SDS011;5213;53.548;9.930;2024-02-26T05:38:53;34.65;;;22.92;;
10335;SDS011;5213;53.548;9.930;2024-02-26T05:41:20;38.83;;;23.63;;
10335;SDS011;5213;53.548;9.930;2024-02-26T05:43:48;34.28;;;22.42;;
10335;SDS011;5213;53.548;9.930;2024-02-26T05:46:18;37.35;;;22.42;;
10335;SDS011;5213;53.548;9.930;2024-02-26T05:48:46;38.92;;;22.55;;
10335;SDS011;5213;53.548;9.930;2024-02-26T05:51:12;42.83;;;23.20;;
10335;SDS011;5213;53.548;9.930;2024-02-26T05:53:38;38.05;;;23.17;;
10335;SDS011;5213;53.548;9.930;2024-02-26T05:56:05;37.22;;;22.83;;
10335;SDS011;5213;53.548;9.930;2024-02-26T05:58:31;38.63;;;22.65;;
10335;SDS011;5213;53.548;9.930;2024-02-26T06:00:57;39.03;;;21.73;;
10335;SDS011;5213;53.548;9.930;2024-02-26T06:03:23;36.28;;;22.27;;
10335;SDS011;5213;53.548;9.930;2024-02-26T06:05:48;34.65;;;21.85;;
10335;SDS011;5213;53.548;9.930;2024-02-26T06:08:14;36.38;;;21.90;;
10335;SDS011;5213;53.548;9.930;2024-02-26T06:10:39;34.63;;;21.48;;
10335;SDS011;5213;53.548;9.930;2024-02-26T06:13:05;31.10;;;20.80;;
10335;SDS011;5213;53.548;9.930;2024-02-26T06:15:31;34.95;;;21.88;;
10335;SDS011;5213;53.548;9.930;2024-02-26T06:17:56;36.95;;;21.45;;
10335;SDS011;5213;53.548;9.930;2024-02-26T06:20:22;32.88;;;20.20;;
10335;SDS011;5213;53.548;9.930;2024-02-26T06:22:48;32.40;;;20.60;;
10335;SDS011;5213;53.548;9.930;2024-02-26T06:25:13;31.52;;;20.27;;
10335;SDS011;5213;53.548;9.930;2024-02-26T06:27:39;31.75;;;20.77;;
10335;SDS011;5213;53.548;9.930;2024-02-26T06:30:05;31.77;;;20.50;;
10335;SDS011;5213;53.548;9.930;2024-02-26T06:32:31;31.73;;;19.67;;
10335;SDS011;5213;53.548;9.930;2024-02-26T06:34:57;30.38;;;19.90;;
10335;SDS011;5213;53.548;9.930;2024-02-26T06:37:22;30.17;;;18.73;;
10335;SDS011;5213;53.548;9.930;2024-02-26T06:39:48;29.30;;;19.27;;
10335;SDS011;5213;53.548;9.930;2024-02-26T06:42:14;29.67;;;18.73;;
10335;SDS011;5213;53.548;9.930;2024-02-26T06:44:39;28.25;;;19.55;;
10335;SDS011;5213;53.548;9.930;2024-02-26T06:47:05;28.30;;;19.88;;
10335;SDS011;5213;53.548;9.930;2024-02-26T06:49:30;30.05;;;19.50;;
10335;SDS011;5213;53.548;9.930;2024-02-26T06:51:56;31.05;;;20.05;;
10335;SDS011;5213;53.548;9.930;2024-02-26T06:54:22;29.65;;;20.23;;
10335;SDS011;5213;53.548;9.930;2024-02-26T06:56:48;28.67;;;19.88;;
10335;SDS011;5213;53.548;9.930;2024-02-26T06:59:13;33.17;;;19.75;;
10335;SDS011;5213;53.548;9.930;2024-02-26T07:01:42;29.58;;;18.75;;
10335;SDS011;5213;53.548;9.930;2024-02-26T07:04:08;29.65;;;18.92;;
10335;SDS011;5213;53.548;9.930;2024-02-26T07:06:35;27.92;;;18.83;;
10335;SDS011;5213;53.548;9.930;2024-02-26T07:09:01;30.85;;;19.60;;
10335;SDS011;5213;53.548;9.930;2024-02-26T07:11:27;28.83;;;18.77;;
10335;SDS011;5213;53.548;9.930;2024-02-26T07:13:52;28.92;;;18.63;;
10335;SDS011;5213;53.548;9.930;2024-02-26T07:16:18;29.45;;;19.48;;
10335;SDS011;5213;53.548;9.930;2024-02-26T07:18:43;28.15;;;18.77;;
10335;SDS011;5213;53.548;9.930;2024-02-26T07:21:09;29.58;;;18.50;;
10335;SDS011;5213;53.548;9.930;2024-02-26T07:23:36;27.35;;;17.35;;
10335;SDS011;5213;53.548;9.930;2024-02-26T07:26:02;28.02;;;18.88;;
10335;SDS011;5213;53.548;9.930;2024-02-26T07:28:28;27.90;;;19.45;;
10335;SDS011;5213;53.548;9.930;2024-02-26T07:30:54;27.10;;;16.85;;
10335;SDS011;5213;53.548;9.930;2024-02-26T07:33:20;25.85;;;16.77;;
10335;SDS011;5213;53.548;9.930;2024-02-26T07:35:45;26.92;;;18.38;;
10335;SDS011;5213;53.548;9.930;2024-02-26T07:38:11;25.80;;;17.60;;
10335;SDS011;5213;53.548;9.930;2024-02-26T07:40:38;24.48;;;17.17;;
10335;SDS011;5213;53.548;9.930;2024-02-26T07:43:04;24.50;;;17.15;;
10335;SDS011;5213;53.548;9.930;2024-02-26T07:45:29;22.92;;;16.42;;
10335;SDS011;5213;53.548;9.930;2024-02-26T07:47:55;23.23;;;16.42;;
10335;SDS011;5213;53.548;9.930;2024-02-26T07:50:21;24.15;;;16.77;;
10335;SDS011;5213;53.548;9.930;2024-02-26T07:52:47;22.42;;;16.17;;
10335;SDS011;5213;53.548;9.930;2024-02-26T07:55:12;21.98;;;16.52;;
10335;SDS011;5213;53.548;9.930;2024-02-26T07:57:41;19.92;;;14.45;;
10335;SDS011;5213;53.548;9.930;2024-02-26T08:00:08;22.35;;;16.35;;
10335;SDS011;5213;53.548;9.930;2024-02-26T08:02:35;22.58;;;15.93;;
10335;SDS011;5213;53.548;9.930;2024-02-26T08:05:01;21.95;;;16.20;;
10335;SDS011;5213;53.548;9.930;2024-02-26T08:07:27;19.83;;;15.10;;
10335;SDS011;5213;53.548;9.930;2024-02-26T08:09:53;19.55;;;15.18;;
10335;SDS011;5213;53.548;9.930;2024-02-26T08:12:19;20.00;;;14.52;;
10335;SDS011;5213;53.548;9.930;2024-02-26T08:14:44;18.63;;;14.43;;
10335;SDS011;5213;53.548;9.930;2024-02-26T08:17:10;19.33;;;14.43;;
10335;SDS011;5213;53.548;9.930;2024-02-26T08:19:36;18.90;;;14.43;;
10335;SDS011;5213;53.548;9.930;2024-02-26T08:22:01;19.60;;;14.13;;
10335;SDS011;5213;53.548;9.930;2024-02-26T08:24:27;19.15;;;15.18;;
10335;SDS011;5213;53.548;9.930;2024-02-26T08:26:53;22.65;;;15.70;;
10335;SDS011;5213;53.548;9.930;2024-02-26T08:29:19;20.55;;;13.52;;
10335;SDS011;5213;53.548;9.930;2024-02-26T08:31:44;18.30;;;14.70;;
10335;SDS011;5213;53.548;9.930;2024-02-26T08:34:10;21.15;;;14.40;;
10335;SDS011;5213;53.548;9.930;2024-02-26T08:36:36;19.00;;;14.20;;
10335;SDS011;5213;53.548;9.930;2024-02-26T08:39:02;18.83;;;14.23;;
10335;SDS011;5213;53.548;9.930;2024-02-26T08:41:28;16.88;;;13.15;;
10335;SDS011;5213;53.548;9.930;2024-02-26T08:43:54;17.02;;;13.30;;
10335;SDS011;5213;53.548;9.930;2024-02-26T08:46:19;21.02;;;15.00;;
10335;SDS011;5213;53.548;9.930;2024-02-26T08:48:45;19.63;;;14.40;;
10335;SDS011;5213;53.548;9.930;2024-02-26T08:51:11;23.20;;;15.98;;
10335;SDS011;5213;53.548;9.930;2024-02-26T08:53:38;17.95;;;14.18;;
10335;SDS011;5213;53.548;9.930;2024-02-26T08:56:04;18.83;;;14.55;;
10335;SDS011;5213;53.548;9.930;2024-02-26T08:58:30;19.60;;;14.13;;
10335;SDS011;5213;53.548;9.930;2024-02-26T09:00:55;20.42;;;14.70;;
10335;SDS011;5213;53.548;9.930;2024-02-26T09:03:21;17.73;;;13.60;;
10335;SDS011;5213;53.548;9.930;2024-02-26T09:05:47;18.63;;;13.40;;
10335;SDS011;5213;53.548;9.930;2024-02-26T09:08:16;16.52;;;12.77;;
10335;SDS011;5213;53.548;9.930;2024-02-26T09:10:41;15.88;;;12.35;;
10335;SDS011;5213;53.548;9.930;2024-02-26T09:13:07;16.83;;;12.98;;
10335;SDS011;5213;53.548;9.930;2024-02-26T09:15:33;17.13;;;12.98;;
10335;SDS011;5213;53.548;9.930;2024-02-26T09:17:59;18.50;;;12.75;;
10335;SDS011;5213;53.548;9.930;2024-02-26T09:20:24;16.35;;;12.40;;
10335;SDS011;5213;53.548;9.930;2024-02-26T09:22:50;14.52;;;11.50;;
10335;SDS011;5213;53.548;9.930;2024-02-26T09:25:19;13.27;;;11.43;;
10335;SDS011;5213;53.548;9.930;2024-02-26T09:27:45;13.10;;;11.10;;
10335;SDS011;5213;53.548;9.930;2024-02-26T09:30:12;11.45;;;10.00;;
10335;SDS011;5213;53.548;9.930;2024-02-26T09:32:38;12.38;;;10.77;;
10335;SDS011;5213;53.548;9.930;2024-02-26T09:35:05;12.23;;;10.23;;
10335;SDS011;5213;53.548;9.930;2024-02-26T09:37:31;12.35;;;10.45;;
10335;SDS011;5213;53.548;9.930;2024-02-26T09:39:57;12.13;;;9.70;;
10335;SDS011;5213;53.548;9.930;2024-02-26T09:42:25;14.70;;;10.95;;
10335;SDS011;5213;53.548;9.930;2024-02-26T09:44:52;11.13;;;9.50;;
10335;SDS011;5213;53.548;9.930;2024-02-26T09:47:22;14.15;;;10.48;;
10335;SDS011;5213;53.548;9.930;2024-02-26T09:49:49;11.65;;;9.88;;
10335;SDS011;5213;53.548;9.930;2024-02-26T09:52:18;11.25;;;9.35;;
10335;SDS011;5213;53.548;9.930;2024-02-26T09:54:48;15.63;;;10.15;;
10335;SDS011;5213;53.548;9.930;2024-02-26T09:57:14;12.30;;;9.90;;
10335;SDS011;5213;53.548;9.930;2024-02-26T09:59:42;11.27;;;10.02;;
10335;SDS011;5213;53.548;9.930;2024-02-26T10:02:12;14.38;;;10.70;;
10335;SDS011;5213;53.548;9.930;2024-02-26T10:04:39;12.38;;;10.18;;
10335;SDS011;5213;53.548;9.930;2024-02-26T10:07:09;13.00;;;9.90;;
10335;SDS011;5213;53.548;9.930;2024-02-26T10:09:36;13.90;;;11.10;;
10335;SDS011;5213;53.548;9.930;2024-02-26T10:12:02;13.18;;;10.68;;
10335;SDS011;5213;53.548;9.930;2024-02-26T10:14:33;13.55;;;10.85;;
10335;SDS011;5213;53.548;9.930;2024-02-26T10:16:59;14.73;;;11.77;;
10335;SDS011;5213;53.548;9.930;2024-02-26T10:19:28;14.30;;;11.32;;
10335;SDS011;5213;53.548;9.930;2024-02-26T10:21:58;14.43;;;11.52;;
10335;SDS011;5213;53.548;9.930;2024-02-26T10:24:26;14.63;;;11.90;;
10335;SDS011;5213;53.548;9.930;2024-02-26T10:26:52;15.27;;;11.32;;
10335;SDS011;5213;53.548;9.930;2024-02-26T10:29:19;16.35;;;12.18;;
10335;SDS011;5213;53.548;9.930;2024-02-26T10:31:45;17.60;;;12.82;;
10335;SDS011;5213;53.548;9.930;2024-02-26T10:34:11;16.45;;;12.57;;
10335;SDS011;5213;53.548;9.930;2024-02-26T10:36:37;16.63;;;12.50;;
10335;SDS011;5213;53.548;9.930;2024-02-26T10:39:06;15.60;;;12.80;;
10335;SDS011;5213;53.548;9.930;2024-02-26T10:41:35;15.13;;;12.55;;
10335;SDS011;5213;53.548;9.930;2024-02-26T10:44:01;14.13;;;11.88;;
10335;SDS011;5213;53.548;9.930;2024-02-26T10:46:27;15.07;;;11.63;;
10335;SDS011;5213;53.548;9.930;2024-02-26T10:48:53;16.42;;;11.68;;
10335;SDS011;5213;53.548;9.930;2024-02-26T10:51:29;15.35;;;11.18;;
10335;SDS011;5213;53.548;9.930;2024-02-26T10:53:56;15.23;;;12.20;;
10335;SDS011;5213;53.548;9.930;2024-02-26T10:56:27;14.98;;;11.68;;
10335;SDS011;5213;53.548;9.930;2024-02-26T10:58:57;13.95;;;11.05;;
10335;SDS011;5213;53.548;9.930;2024-02-26T11:01:24;13.68;;;10.98;;
10335;SDS011;5213;53.548;9.930;2024-02-26T11:03:51;15.98;;;11.25;;
10335;SDS011;5213;53.548;9.930;2024-02-26T11:06:21;15.13;;;10.65;;
10335;SDS011;5213;53.548;9.930;2024-02-26T11:08:50;16.23;;;11.98;;
10335;SDS011;5213;53.548;9.930;2024-02-26T11:11:17;13.85;;;10.65;;
10335;SDS011;5213;53.548;9.930;2024-02-26T11:13:46;14.65;;;10.93;;
10335;SDS011;5213;53.548;9.930;2024-02-26T11:16:16;15.52;;;11.55;;
10335;SDS011;5213;53.548;9.930;2024-02-26T11:18:43;16.25;;;12.20;;
10335;SDS011;5213;53.548;9.930;2024-02-26T11:21:13;15.57;;;11.68;;
10335;SDS011;5213;53.548;9.930;2024-02-26T11:23:41;18.02;;;11.27;;
10335;SDS011;5213;53.548;9.930;2024-02-26T11:26:07;15.05;;;11.07;;
10335;SDS011;5213;53.548;9.930;2024-02-26T11:28:35;14.18;;;11.02;;
10335;SDS011;5213;53.548;9.930;2024-02-26T11:31:02;14.55;;;11.43;;
10335;SDS011;5213;53.548;9.930;2024-02-26T11:33:32;13.80;;;10.98;;
10335;SDS011;5213;53.548;9.930;2024-02-26T11:36:00;14.35;;;10.25;;
10335;SDS011;5213;53.548;9.930;2024-02-26T11:38:36;14.80;;;10.68;;
10335;SDS011;5213;53.548;9.930;2024-02-26T11:41:03;14.07;;;11.02;;
10335;SDS011;5213;53.548;9.930;2024-02-26T11:46:40;14.48;;;11.00;;
10335;SDS011;5213;53.548;9.930;2024-02-26T11:51:53;15.80;;;12.35;;
10335;SDS011;5213;53.548;9.930;2024-02-26T11:57:24;14.25;;;11.43;;
10335;SDS011;5213;53.548;9.930;2024-02-26T12:00:14;18.15;;;12.13;;
10335;SDS011;5213;53.548;9.930;2024-02-26T12:02:47;14.95;;;11.18;;
10335;SDS011;5213;53.548;9.930;2024-02-26T12:05:22;13.88;;;11.20;;
10335;SDS011;5213;53.548;9.930;2024-02-26T12:08:05;13.02;;;9.95;;
10335;SDS011;5213;53.548;9.930;2024-02-26T12:10:33;13.32;;;10.45;;
10335;SDS011;5213;53.548;9.930;2024-02-26T12:13:07;13.85;;;10.80;;
10335;SDS011;5213;53.548;9.930;2024-02-26T12:15:38;12.57;;;9.98;;
10335;SDS011;5213;53.548;9.930;2024-02-26T12:18:20;12.25;;;9.70;;
10335;SDS011;5213;53.548;9.930;2024-02-26T12:20:47;12.95;;;8.80;;
10335;SDS011;5213;53.548;9.930;2024-02-26T12:23:26;11.43;;;8.57;;
10335;SDS011;5213;53.548;9.930;2024-02-26T12:25:53;12.10;;;9.65;;
10335;SDS011;5213;53.548;9.930;2024-02-26T12:28:19;12.90;;;9.30;;
10335;SDS011;5213;53.548;9.930;2024-02-26T12:30:44;11.68;;;9.00;;
10335;SDS011;5213;53.548;9.930;2024-02-26T12:33:11;10.60;;;8.40;;
10335;SDS011;5213;53.548;9.930;2024-02-26T12:35:36;13.40;;;9.45;;
10335;SDS011;5213;53.548;9.930;2024-02-26T12:38:02;11.85;;;9.82;;
10335;SDS011;5213;53.548;9.930;2024-02-26T12:40:29;10.50;;;8.32;;
10335;SDS011;5213;53.548;9.930;2024-02-26T12:42:55;11.60;;;10.18;;
10335;SDS011;5213;53.548;9.930;2024-02-26T12:45:21;12.10;;;10.27;;
10335;SDS011;5213;53.548;9.930;2024-02-26T12:47:46;10.75;;;9.45;;
10335;SDS011;5213;53.548;9.930;2024-02-26T12:50:14;12.30;;;9.80;;
10335;SDS011;5213;53.548;9.930;2024-02-26T12:52:43;11.15;;;9.93;;
10335;SDS011;5213;53.548;9.930;2024-02-26T12:55:17;12.68;;;10.55;;
10335;SDS011;5213;53.548;9.930;2024-02-26T12:57:45;14.43;;;11.80;;
10335;SDS011;5213;53.548;9.930;2024-02-26T13:00:22;12.82;;;10.85;;
10335;SDS011;5213;53.548;9.930;2024-02-26T13:02:50;14.20;;;11.05;;
10335;SDS011;5213;53.548;9.930;2024-02-26T13:05:16;14.48;;;11.98;;
10335;SDS011;5213;53.548;9.930;2024-02-26T13:07:44;13.45;;;11.10;;
10335;SDS011;5213;53.548;9.930;2024-02-26T13:10:12;12.88;;;10.82;;
10335;SDS011;5213;53.548;9.930;2024-02-26T13:12:42;11.55;;;10.35;;
10335;SDS011;5213;53.548;9.930;2024-02-26T13:15:19;12.38;;;10.30;;
10335;SDS011;5213;53.548;9.930;2024-02-26T13:17:47;12.27;;;10.02;;
10335;SDS011;5213;53.548;9.930;2024-02-26T13:20:24;11.95;;;9.68;;
10335;SDS011;5213;53.548;9.930;2024-02-26T13:22:51;12.20;;;10.10;;
10335;SDS011;5213;53.548;9.930;2024-02-26T13:25:24;10.60;;;8.95;;
10335;SDS011;5213;53.548;9.930;2024-02-26T13:27:50;10.57;;;8.85;;
10335;SDS011;5213;53.548;9.930;2024-02-26T13:30:15;12.10;;;9.93;;
10335;SDS011;5213;53.548;9.930;2024-02-26T13:32:44;12.68;;;10.25;;
10335;SDS011;5213;53.548;9.930;2024-02-26T13:35:13;12.82;;;8.98;;
10335;SDS011;5213;53.548;9.930;2024-02-26T13:37:39;10.98;;;9.30;;
10335;SDS011;5213;53.548;9.930;2024-02-26T13:40:06;11.30;;;9.18;;
10335;SDS011;5213;53.548;9.930;2024-02-26T13:42:33;11.85;;;9.05;;
10335;SDS011;5213;53.548;9.930;2024-02-26T13:44:59;13.65;;;10.05;;
10335;SDS011;5213;53.548;9.930;2024-02-26T13:47:25;12.25;;;9.57;;
10335;SDS011;5213;53.548;9.930;2024-02-26T13:49:51;13.93;;;10.95;;
10335;SDS011;5213;53.548;9.930;2024-02-26T13:52:17;13.10;;;10.55;;
10335;SDS011;5213;53.548;9.930;2024-02-26T13:54:45;10.90;;;9.25;;
10335;SDS011;5213;53.548;9.930;2024-02-26T13:57:11;11.65;;;9.48;;
10335;SDS011;5213;53.548;9.930;2024-02-26T13:59:37;11.80;;;9.32;;
10335;SDS011;5213;53.548;9.930;2024-02-26T14:02:06;12.13;;;9.95;;
10335;SDS011;5213;53.548;9.930;2024-02-26T14:04:32;12.40;;;9.90;;
10335;SDS011;5213;53.548;9.930;2024-02-26T14:06:58;12.75;;;9.73;;
10335;SDS011;5213;53.548;9.930;2024-02-26T14:09:24;14.35;;;10.00;;
10335;SDS011;5213;53.548;9.930;2024-02-26T14:11:56;14.57;;;10.07;;
10335;SDS011;5213;53.548;9.930;2024-02-26T14:14:22;13.90;;;10.77;;
10335;SDS011;5213;53.548;9.930;2024-02-26T14:16:47;12.77;;;10.10;;
10335;SDS011;5213;53.548;9.930;2024-02-26T14:19:13;15.65;;;10.52;;
10335;SDS011;5213;53.548;9.930;2024-02-26T14:21:38;12.98;;;10.85;;
10335;SDS011;5213;53.548;9.930;2024-02-26T14:24:04;14.25;;;10.35;;
10335;SDS011;5213;53.548;9.930;2024-02-26T14:26:30;14.45;;;10.57;;
10335;SDS011;5213;53.548;9.930;2024-02-26T14:28:56;13.13;;;10.73;;
10335;SDS011;5213;53.548;9.930;2024-02-26T14:31:21;13.45;;;10.43;;
10335;SDS011;5213;53.548;9.930;2024-02-26T14:33:47;13.63;;;10.35;;
10335;SDS011;5213;53.548;9.930;2024-02-26T14:36:13;15.52;;;11.57;;
10335;SDS011;5213;53.548;9.930;2024-02-26T14:38:42;13.45;;;10.57;;
10335;SDS011;5213;53.548;9.930;2024-02-26T14:41:09;15.13;;;11.10;;
10335;SDS011;5213;53.548;9.930;2024-02-26T14:43:35;14.90;;;11.35;;